createdAt,value
2022-10-06T00:01:12.059Z,14.40
2022-10-06T00:09:17.346Z,14.50
2022-10-06T00:17:25.282Z,14.50
2022-10-06T00:25:31.089Z,14.40
2022-10-06T00:33:39.459Z,14.50
2022-10-06T00:41:44.907Z,14.40
2022-10-06T00:49:53.630Z,14.50
2022-10-06T00:57:59.490Z,14.30
2022-10-06T01:06:08.135Z,13.70
2022-10-06T01:14:13.959Z,13.70
2022-10-06T01:22:32.588Z,13.70
2022-10-06T01:30:42.980Z,13.80
2022-10-06T01:38:51.116Z,13.80
2022-10-06T01:46:56.756Z,13.80
2022-10-06T01:55:05.045Z,13.70
2022-10-06T02:03:11.107Z,13.40
2022-10-06T02:11:20.154Z,13.70
2022-10-06T02:19:27.577Z,13.40
2022-10-06T02:27:35.782Z,13.50
2022-10-06T02:35:43.029Z,13.60
2022-10-06T02:43:55.354Z,13.40
2022-10-06T02:52:01.535Z,12.60
2022-10-06T03:00:11.554Z,12.70
2022-10-06T03:08:16.973Z,12.90
2022-10-06T03:16:26.723Z,12.90
2022-10-06T03:24:32.234Z,12.90
2022-10-06T03:32:40.934Z,13.00
2022-10-06T03:40:48.173Z,13.00
2022-10-06T03:48:57.365Z,12.90
2022-10-06T03:57:04.499Z,13.00
2022-10-06T04:05:13.371Z,12.70
2022-10-06T04:13:19.979Z,12.90
2022-10-06T04:21:29.361Z,12.80
2022-10-06T04:29:35.320Z,12.70
2022-10-06T04:37:43.676Z,12.60
2022-10-06T04:45:49.598Z,12.70
2022-10-06T04:53:57.749Z,12.70
2022-10-06T05:02:07.125Z,12.60
2022-10-06T05:10:15.411Z,12.60
2022-10-06T05:18:21.472Z,12.90
2022-10-06T05:26:31.795Z,13.10
2022-10-06T05:34:38.674Z,13.10
2022-10-06T05:42:47.450Z,13.40
2022-10-06T05:51:00.244Z,13.60
2022-10-06T05:59:09.281Z,13.30
2022-10-06T06:07:15.300Z,13.40
2022-10-06T06:15:37.609Z,13.60
2022-10-06T06:23:45.161Z,14.20
2022-10-06T06:31:53.631Z,14.20
2022-10-06T06:39:59.162Z,14.60
2022-10-06T06:48:07.836Z,14.80
2022-10-06T06:56:13.388Z,15.00
2022-10-06T07:04:22.079Z,16.00
2022-10-06T07:12:28.096Z,16.80
2022-10-06T07:20:51.064Z,16.80
2022-10-06T07:29:00.149Z,17.00
2022-10-06T07:37:08.461Z,17.20
2022-10-06T07:45:26.581Z,17.50
2022-10-06T07:53:35.713Z,18.30
2022-10-06T08:01:47.597Z,18.00
2022-10-06T08:09:55.514Z,18.50
2022-10-06T08:18:08.742Z,21.10
2022-10-06T08:26:25.156Z,20.80
2022-10-06T08:34:30.501Z,20.70
2022-10-06T08:42:43.753Z,20.80
2022-10-06T08:50:57.484Z,21.10
2022-10-06T08:59:06.956Z,22.00
2022-10-06T09:07:16.891Z,22.00
2022-10-06T09:15:33.944Z,22.70
2022-10-06T09:23:52.274Z,23.30
2022-10-06T09:32:03.073Z,26.10
2022-10-06T09:40:39.749Z,36.70
2022-10-06T09:48:47.671Z,44.10
2022-10-06T09:56:54.237Z,48.20
2022-10-06T10:05:02.588Z,49.30
2022-10-06T10:13:21.746Z,50.50
2022-10-06T10:21:33.949Z,52.80
2022-10-06T10:30:02.126Z,54.80
2022-10-06T10:38:14.879Z,54.90
2022-10-06T10:46:27.398Z,54.30
2022-10-06T10:54:42.262Z,54.30
2022-10-06T11:02:47.579Z,52.80
2022-10-06T11:11:00.510Z,51.70
2022-10-06T11:19:18.427Z,49.10
2022-10-06T11:27:37.944Z,41.50
2022-10-06T11:35:47.356Z,35.90
2022-10-06T11:44:00.774Z,32.40
2022-10-06T11:52:35.760Z,29.40
2022-10-06T12:00:55.405Z,28.10
2022-10-06T12:09:01.216Z,27.40
2022-10-06T12:17:19.815Z,26.80
2022-10-06T12:25:31.109Z,26.20
2022-10-06T12:33:43.879Z,25.90
2022-10-06T12:42:01.651Z,25.70
2022-10-06T12:50:18.583Z,25.20
2022-10-06T12:58:32.591Z,25.20
2022-10-06T13:06:40.730Z,25.00
2022-10-06T13:14:46.082Z,24.50
2022-10-06T13:23:02.833Z,24.40
2022-10-06T13:31:20.161Z,24.40
2022-10-06T13:39:31.936Z,24.10
2022-10-06T13:47:38.046Z,24.30
2022-10-06T13:55:52.540Z,24.20
2022-10-06T14:04:16.415Z,24.10
2022-10-06T14:12:24.426Z,24.10
2022-10-06T14:20:46.087Z,24.20
2022-10-06T14:28:55.674Z,24.20
2022-10-06T14:37:00.987Z,24.10
2022-10-06T14:45:10.072Z,24.00
2022-10-06T14:53:17.616Z,23.80
2022-10-06T15:01:28.457Z,23.70
2022-10-06T15:09:33.831Z,23.50
2022-10-06T15:17:42.468Z,23.30
2022-10-06T15:26:07.530Z,23.20
2022-10-06T15:34:16.871Z,23.00
2022-10-06T15:42:24.371Z,22.80
2022-10-06T15:50:32.238Z,22.60
2022-10-06T15:58:37.591Z,22.40
2022-10-06T16:06:55.510Z,22.10
2022-10-06T16:15:00.868Z,22.00
2022-10-06T16:23:08.684Z,21.60
2022-10-06T16:31:14.049Z,21.30
2022-10-06T16:39:23.406Z,21.10
2022-10-06T16:47:28.790Z,20.90
2022-10-06T16:55:36.676Z,20.60
2022-10-06T17:03:43.011Z,20.30
2022-10-06T17:11:52.365Z,20.10
2022-10-06T17:19:57.634Z,19.80
2022-10-06T17:28:05.552Z,20.00
2022-10-06T17:36:13.660Z,19.40
2022-10-06T17:44:26.172Z,19.30
2022-10-06T17:52:31.836Z,19.00
2022-10-06T18:00:39.752Z,19.10
2022-10-06T18:08:46.378Z,19.10
2022-10-06T18:16:57.892Z,19.10
2022-10-06T18:25:03.383Z,19.00
2022-10-06T18:41:38.054Z,18.60
2022-10-06T18:49:46.589Z,18.80
2022-10-06T18:57:51.879Z,18.80
2022-10-06T19:06:00.303Z,18.50
2022-10-06T19:14:06.457Z,18.40
2022-10-06T19:22:16.307Z,18.20
2022-10-06T19:30:22.354Z,18.10
2022-10-06T19:38:31.223Z,18.20
2022-10-06T19:46:37.611Z,17.60
2022-10-06T19:54:47.051Z,17.90
2022-10-06T20:02:52.619Z,18.00
2022-10-06T20:11:07.679Z,17.80
2022-10-06T20:19:14.335Z,17.50
2022-10-06T20:27:22.284Z,17.30
2022-10-06T20:35:27.620Z,17.20
2022-10-06T20:43:35.997Z,17.00
2022-10-06T20:51:46.690Z,17.40
2022-10-06T20:59:54.603Z,17.20
2022-10-06T21:08:00.229Z,17.00
2022-10-06T21:16:09.114Z,16.80
2022-10-06T21:24:14.599Z,16.80
2022-10-06T21:32:22.521Z,16.70
2022-10-06T21:40:27.828Z,16.40
2022-10-06T21:48:35.722Z,16.50
2022-10-06T21:56:41.918Z,16.40
2022-10-06T22:04:49.831Z,16.40
2022-10-06T22:12:55.186Z,16.40
2022-10-06T22:21:03.461Z,16.20
2022-10-06T22:29:10.544Z,16.10
2022-10-06T22:37:18.412Z,15.90
2022-10-06T22:45:23.709Z,15.90
2022-10-06T22:53:32.432Z,16.20
2022-10-06T23:01:39.334Z,16.20
2022-10-06T23:09:47.202Z,16.10
2022-10-06T23:17:52.608Z,16.00
2022-10-06T23:26:05.071Z,16.10
2022-10-06T23:34:10.526Z,15.80
2022-10-06T23:42:18.438Z,15.50
2022-10-06T23:50:23.837Z,15.40
2022-10-06T23:58:32.214Z,15.50
